sensor_id;sensor_type;location;lat;lon;timestamp;pressure;altitude;pressure_sealevel;temperature;humidity
11345;BME280;5727;42.600;23.028;2023-07-09T00:01:54;94134.00;;;17.69;100.00
11345;BME280;5727;42.600;23.028;2023-07-09T00:04:20;94139.13;;;17.59;100.00
11345;BME280;5727;42.600;23.028;2023-07-09T00:06:47;94130.81;;;17.60;100.00
11345;BME280;5727;42.600;23.028;2023-07-09T00:09:16;94125.88;;;17.59;100.00
11345;BME280;5727;42.600;23.028;2023-07-09T00:11:43;94127.75;;;17.58;100.00
11345;BME280;5727;42.600;23.028;2023-07-09T00:14:11;94130.00;;;17.56;100.00
11345;BME280;5727;42.600;23.028;2023-07-09T00:16:41;94124.72;;;17.56;100.00
11345;BME280;5727;42.600;23.028;2023-07-09T00:19:10;94130.75;;;17.53;100.00
11345;BME280;5727;42.600;23.028;2023-07-09T00:21:39;94134.00;;;17.47;100.00
11345;BME280;5727;42.600;23.028;2023-07-09T00:24:06;94128.41;;;17.48;100.00
11345;BME280;5727;42.600;23.028;2023-07-09T00:26:36;94118.47;;;17.45;100.00
11345;BME280;5727;42.600;23.028;2023-07-09T00:29:04;94122.69;;;17.46;100.00
11345;BME280;5727;42.600;23.028;2023-07-09T00:31:31;94138.09;;;17.40;100.00
11345;BME280;5727;42.600;23.028;2023-07-09T00:33:59;94120.69;;;17.39;100.00
11345;BME280;5727;42.600;23.028;2023-07-09T00:36:27;94133.50;;;17.37;100.00
11345;BME280;5727;42.600;23.028;2023-07-09T00:38:55;94127.44;;;17.37;100.00
11345;BME280;5727;42.600;23.028;2023-07-09T00:41:25;94127.81;;;17.35;100.00
11345;BME280;5727;42.600;23.028;2023-07-09T00:43:53;94129.50;;;17.21;100.00
11345;BME280;5727;42.600;23.028;2023-07-09T00:49:32;94124.94;;;17.21;100.00
11345;BME280;5727;42.600;23.028;2023-07-09T00:52:03;94118.72;;;17.10;100.00
11345;BME280;5727;42.600;23.028;2023-07-09T00:54:32;94114.84;;;17.04;100.00
11345;BME280;5727;42.600;23.028;2023-07-09T00:57:06;94117.91;;;17.06;100.00
11345;BME280;5727;42.600;23.028;2023-07-09T00:59:35;94115.63;;;17.05;100.00
11345;BME280;5727;42.600;23.028;2023-07-09T01:02:03;94109.50;;;17.01;100.00
11345;BME280;5727;42.600;23.028;2023-07-09T01:04:31;94111.38;;;17.00;100.00
11345;BME280;5727;42.600;23.028;2023-07-09T01:06:58;94108.00;;;17.00;100.00
11345;BME280;5727;42.600;23.028;2023-07-09T01:09:26;94104.91;;;16.94;100.00
11345;BME280;5727;42.600;23.028;2023-07-09T01:11:53;94113.88;;;16.90;100.00
11345;BME280;5727;42.600;23.028;2023-07-09T01:14:26;94111.13;;;16.83;100.00
11345;BME280;5727;42.600;23.028;2023-07-09T01:16:56;94102.28;;;16.75;100.00
11345;BME280;5727;42.600;23.028;2023-07-09T01:19:27;94104.88;;;16.72;100.00
11345;BME280;5727;42.600;23.028;2023-07-09T01:21:56;94096.94;;;16.72;100.00
11345;BME280;5727;42.600;23.028;2023-07-09T01:24:50;94092.38;;;16.69;100.00
11345;BME280;5727;42.600;23.028;2023-07-09T01:27:19;94105.19;;;16.67;100.00
11345;BME280;5727;42.600;23.028;2023-07-09T01:29:46;94097.56;;;16.62;100.00
11345;BME280;5727;42.600;23.028;2023-07-09T01:32:15;94100.59;;;16.64;100.00
11345;BME280;5727;42.600;23.028;2023-07-09T01:34:44;94105.50;;;16.62;100.00
11345;BME280;5727;42.600;23.028;2023-07-09T01:37:14;94107.38;;;16.61;100.00
11345;BME280;5727;42.600;23.028;2023-07-09T01:39:41;94104.72;;;16.61;100.00
11345;BME280;5727;42.600;23.028;2023-07-09T01:42:08;94102.03;;;16.58;100.00
11345;BME280;5727;42.600;23.028;2023-07-09T01:44:36;94107.59;;;16.53;100.00
11345;BME280;5727;42.600;23.028;2023-07-09T01:47:04;94100.38;;;16.50;100.00
11345;BME280;5727;42.600;23.028;2023-07-09T01:49:31;94103.91;;;16.38;100.00
11345;BME280;5727;42.600;23.028;2023-07-09T01:51:59;94110.25;;;16.33;100.00
11345;BME280;5727;42.600;23.028;2023-07-09T01:54:29;94109.16;;;16.34;100.00
11345;BME280;5727;42.600;23.028;2023-07-09T01:57:13;94112.84;;;16.30;100.00
11345;BME280;5727;42.600;23.028;2023-07-09T01:59:40;94103.44;;;16.32;100.00
11345;BME280;5727;42.600;23.028;2023-07-09T02:02:07;94108.69;;;16.29;100.00
11345;BME280;5727;42.600;23.028;2023-07-09T02:04:34;94110.56;;;16.28;100.00
11345;BME280;5727;42.600;23.028;2023-07-09T02:07:01;94113.19;;;16.28;100.00
11345;BME280;5727;42.600;23.028;2023-07-09T02:09:29;94117.59;;;16.21;100.00
11345;BME280;5727;42.600;23.028;2023-07-09T02:11:56;94121.22;;;16.13;100.00
11345;BME280;5727;42.600;23.028;2023-07-09T02:14:22;94122.97;;;16.05;100.00
11345;BME280;5727;42.600;23.028;2023-07-09T02:16:50;94120.03;;;16.10;100.00
11345;BME280;5727;42.600;23.028;2023-07-09T02:19:17;94116.69;;;16.13;100.00
11345;BME280;5727;42.600;23.028;2023-07-09T02:21:44;94117.69;;;16.05;100.00
11345;BME280;5727;42.600;23.028;2023-07-09T02:24:11;94122.81;;;15.98;100.00
11345;BME280;5727;42.600;23.028;2023-07-09T02:26:39;94117.69;;;16.05;100.00
11345;BME280;5727;42.600;23.028;2023-07-09T02:29:06;94121.84;;;16.06;100.00
11345;BME280;5727;42.600;23.028;2023-07-09T02:31:33;94129.69;;;16.03;100.00
11345;BME280;5727;42.600;23.028;2023-07-09T02:33:59;94132.00;;;16.04;100.00
11345;BME280;5727;42.600;23.028;2023-07-09T02:36:28;94130.88;;;16.05;100.00
11345;BME280;5727;42.600;23.028;2023-07-09T02:38:55;94128.94;;;16.02;100.00
11345;BME280;5727;42.600;23.028;2023-07-09T02:41:21;94135.00;;;16.03;100.00
11345;BME280;5727;42.600;23.028;2023-07-09T02:43:50;94134.91;;;15.99;100.00
11345;BME280;5727;42.600;23.028;2023-07-09T02:46:16;94136.78;;;15.99;100.00
11345;BME280;5727;42.600;23.028;2023-07-09T02:48:43;94137.16;;;15.97;100.00
11345;BME280;5727;42.600;23.028;2023-07-09T02:51:10;94138.88;;;15.90;100.00
11345;BME280;5727;42.600;23.028;2023-07-09T02:53:36;94138.13;;;15.89;100.00
11345;BME280;5727;42.600;23.028;2023-07-09T02:56:03;94135.75;;;15.84;100.00
11345;BME280;5727;42.600;23.028;2023-07-09T02:58:30;94145.91;;;15.82;100.00
11345;BME280;5727;42.600;23.028;2023-07-09T03:00:58;94146.25;;;15.81;100.00
11345;BME280;5727;42.600;23.028;2023-07-09T03:03:25;94152.72;;;15.83;100.00
11345;BME280;5727;42.600;23.028;2023-07-09T03:05:54;94154.25;;;15.84;100.00
11345;BME280;5727;42.600;23.028;2023-07-09T03:08:20;94155.78;;;15.85;100.00
11345;BME280;5727;42.600;23.028;2023-07-09T03:10:47;94157.31;;;15.86;100.00
11345;BME280;5727;42.600;23.028;2023-07-09T03:13:14;94160.22;;;15.81;100.00
11345;BME280;5727;42.600;23.028;2023-07-09T03:15:41;94158.00;;;15.83;100.00
11345;BME280;5727;42.600;23.028;2023-07-09T03:18:09;94156.34;;;15.75;100.00
11345;BME280;5727;42.600;23.028;2023-07-09T03:20:35;94163.75;;;15.70;100.00
11345;BME280;5727;42.600;23.028;2023-07-09T03:23:04;94167.44;;;15.65;100.00
11345;BME280;5727;42.600;23.028;2023-07-09T03:25:31;94163.00;;;15.69;100.00
11345;BME280;5727;42.600;23.028;2023-07-09T03:27:57;94167.59;;;15.72;100.00
11345;BME280;5727;42.600;23.028;2023-07-09T03:30:24;94160.53;;;15.61;100.00
11345;BME280;5727;42.600;23.028;2023-07-09T03:32:51;94161.31;;;15.61;100.00
11345;BME280;5727;42.600;23.028;2023-07-09T03:35:19;94168.22;;;15.66;100.00
11345;BME280;5727;42.600;23.028;2023-07-09T03:37:45;94169.03;;;15.70;100.00
11345;BME280;5727;42.600;23.028;2023-07-09T03:40:20;94175.09;;;15.70;100.00
11345;BME280;5727;42.600;23.028;2023-07-09T03:42:47;94167.59;;;15.72;100.00
11345;BME280;5727;42.600;23.028;2023-07-09T03:45:14;94172.59;;;15.77;100.00
11345;BME280;5727;42.600;23.028;2023-07-09T03:47:41;94170.09;;;15.84;100.00
11345;BME280;5727;42.600;23.028;2023-07-09T03:50:09;94180.03;;;15.91;100.00
11345;BME280;5727;42.600;23.028;2023-07-09T03:52:38;94178.59;;;15.93;100.00
11345;BME280;5727;42.600;23.028;2023-07-09T03:55:05;94167.66;;;15.95;100.00
11345;BME280;5727;42.600;23.028;2023-07-09T03:57:33;94177.22;;;15.99;100.00
11345;BME280;5727;42.600;23.028;2023-07-09T04:00:00;94178.03;;;16.03;100.00
11345;BME280;5727;42.600;23.028;2023-07-09T04:02:27;94175.94;;;16.12;100.00
11345;BME280;5727;42.600;23.028;2023-07-09T04:04:53;94187.38;;;16.16;100.00
11345;BME280;5727;42.600;23.028;2023-07-09T04:07:20;94180.69;;;16.22;100.00
11345;BME280;5727;42.600;23.028;2023-07-09T04:09:48;94180.75;;;16.26;100.00
11345;BME280;5727;42.600;23.028;2023-07-09T04:12:15;94175.25;;;16.34;100.00
11345;BME280;5727;42.600;23.028;2023-07-09T04:14:42;94173.94;;;16.25;100.00
11345;BME280;5727;42.600;23.028;2023-07-09T04:17:08;94172.88;;;16.29;100.00
11345;BME280;5727;42.600;23.028;2023-07-09T04:19:35;94174.84;;;16.32;100.00
11345;BME280;5727;42.600;23.028;2023-07-09T04:22:02;94186.31;;;16.40;100.00
11345;BME280;5727;42.600;23.028;2023-07-09T04:24:30;94187.66;;;16.50;100.00
11345;BME280;5727;42.600;23.028;2023-07-09T04:26:58;94178.66;;;16.54;100.00
11345;BME280;5727;42.600;23.028;2023-07-09T04:29:28;94181.38;;;16.58;100.00
11345;BME280;5727;42.600;23.028;2023-07-09T04:31:55;94180.03;;;16.67;100.00
11345;BME280;5727;42.600;23.028;2023-07-09T04:34:22;94186.16;;;16.71;100.00
11345;BME280;5727;42.600;23.028;2023-07-09T04:36:48;94181.28;;;16.73;100.00
11345;BME280;5727;42.600;23.028;2023-07-09T04:39:15;94190.38;;;16.76;100.00
11345;BME280;5727;42.600;23.028;2023-07-09T04:41:42;94187.88;;;16.83;100.00
11345;BME280;5727;42.600;23.028;2023-07-09T04:44:10;94182.28;;;16.88;100.00
11345;BME280;5727;42.600;23.028;2023-07-09T04:46:37;94186.88;;;16.91;100.00
11345;BME280;5727;42.600;23.028;2023-07-09T04:49:03;94181.25;;;16.92;100.00
11345;BME280;5727;42.600;23.028;2023-07-09T04:51:30;94179.88;;;17.02;100.00
11345;BME280;5727;42.600;23.028;2023-07-09T04:53:57;94188.25;;;17.04;100.00
11345;BME280;5727;42.600;23.028;2023-07-09T04:56:24;94191.09;;;16.95;100.00
11345;BME280;5727;42.600;23.028;2023-07-09T04:58:50;94184.56;;;17.12;100.00
11345;BME280;5727;42.600;23.028;2023-07-09T05:01:19;94198.75;;;17.23;100.00
11345;BME280;5727;42.600;23.028;2023-07-09T05:03:45;94199.16;;;17.25;100.00
11345;BME280;5727;42.600;23.028;2023-07-09T05:06:12;94199.97;;;17.29;100.00
11345;BME280;5727;42.600;23.028;2023-07-09T05:08:39;94193.28;;;17.38;100.00
11345;BME280;5727;42.600;23.028;2023-07-09T05:11:09;94200.22;;;17.47;100.00
11345;BME280;5727;42.600;23.028;2023-07-09T05:13:36;94196.16;;;17.49;100.00
11345;BME280;5727;42.600;23.028;2023-07-09T05:16:03;94191.34;;;17.58;100.00
11345;BME280;5727;42.600;23.028;2023-07-09T05:18:31;94193.03;;;17.70;100.00
11345;BME280;5727;42.600;23.028;2023-07-09T05:20:57;94196.94;;;17.79;100.00
11345;BME280;5727;42.600;23.028;2023-07-09T05:23:25;94200.00;;;17.81;100.00
11345;BME280;5727;42.600;23.028;2023-07-09T05:25:56;94201.56;;;17.82;100.00
11345;BME280;5727;42.600;23.028;2023-07-09T05:28:22;94201.31;;;17.94;100.00
11345;BME280;5727;42.600;23.028;2023-07-09T05:30:49;94198.00;;;18.01;100.00
11345;BME280;5727;42.600;23.028;2023-07-09T05:33:16;94198.00;;;18.01;100.00
11345;BME280;5727;42.600;23.028;2023-07-09T05:35:45;94201.09;;;18.06;100.00
11345;BME280;5727;42.600;23.028;2023-07-09T05:38:12;94195.16;;;18.16;100.00
11345;BME280;5727;42.600;23.028;2023-07-09T05:40:39;94201.34;;;18.27;100.00
11345;BME280;5727;42.600;23.028;2023-07-09T05:43:06;94206.84;;;18.42;100.00
11345;BME280;5727;42.600;23.028;2023-07-09T05:45:32;94201.97;;;18.44;100.00
11345;BME280;5727;42.600;23.028;2023-07-09T05:48:00;94204.75;;;18.58;100.00
11345;BME280;5727;42.600;23.028;2023-07-09T05:50:27;94201.78;;;18.63;100.00
11345;BME280;5727;42.600;23.028;2023-07-09T05:52:55;94200.75;;;18.71;100.00
11345;BME280;5727;42.600;23.028;2023-07-09T05:55:22;94196.69;;;18.84;100.00
11345;BME280;5727;42.600;23.028;2023-07-09T05:57:49;94193.72;;;18.92;100.00
11345;BME280;5727;42.600;23.028;2023-07-09T06:00:17;94193.41;;;18.97;100.00
11345;BME280;5727;42.600;23.028;2023-07-09T06:02:43;94195.03;;;19.09;100.00
11345;BME280;5727;42.600;23.028;2023-07-09T06:05:10;94196.91;;;19.05;100.00
11345;BME280;5727;42.600;23.028;2023-07-09T06:07:37;94200.81;;;19.22;100.00
11345;BME280;5727;42.600;23.028;2023-07-09T06:10:07;94194.06;;;19.31;100.00
11345;BME280;5727;42.600;23.028;2023-07-09T06:12:35;94197.56;;;19.39;100.00
11345;BME280;5727;42.600;23.028;2023-07-09T06:15:01;94192.00;;;19.54;100.00
11345;BME280;5727;42.600;23.028;2023-07-09T06:17:28;94188.25;;;19.62;100.00
11345;BME280;5727;42.600;23.028;2023-07-09T06:19:55;94200.09;;;19.72;100.00
11345;BME280;5727;42.600;23.028;2023-07-09T06:22:21;94196.75;;;19.82;100.00
11345;BME280;5727;42.600;23.028;2023-07-09T06:24:48;94187.66;;;19.90;100.00
11345;BME280;5727;42.600;23.028;2023-07-09T06:27:16;94191.16;;;20.01;100.00
11345;BME280;5727;42.600;23.028;2023-07-09T06:29:43;94188.50;;;20.04;100.00
11345;BME280;5727;42.600;23.028;2023-07-09T06:32:10;94191.91;;;20.01;100.00
11345;BME280;5727;42.600;23.028;2023-07-09T06:34:37;94189.97;;;19.98;100.00
11345;BME280;5727;42.600;23.028;2023-07-09T06:37:03;94185.13;;;20.11;100.00
11345;BME280;5727;42.600;23.028;2023-07-09T06:39:31;94189.69;;;20.14;100.00
11345;BME280;5727;42.600;23.028;2023-07-09T06:41:58;94187.03;;;20.18;100.00
11345;BME280;5727;42.600;23.028;2023-07-09T06:44:26;94189.41;;;20.33;100.00
11345;BME280;5727;42.600;23.028;2023-07-09T06:46:53;94191.38;;;20.47;100.00
11345;BME280;5727;42.600;23.028;2023-07-09T06:49:19;94193.31;;;20.57;100.00
11345;BME280;5727;42.600;23.028;2023-07-09T06:51:46;94191.81;;;20.59;100.00
11345;BME280;5727;42.600;23.028;2023-07-09T06:54:13;94183.44;;;20.68;100.00
11345;BME280;5727;42.600;23.028;2023-07-09T06:56:40;94179.66;;;20.76;100.00
11345;BME280;5727;42.600;23.028;2023-07-09T06:59:07;94181.97;;;20.88;100.00
11345;BME280;5727;42.600;23.028;2023-07-09T07:01:36;94180.44;;;20.94;100.00
11345;BME280;5727;42.600;23.028;2023-07-09T07:04:03;94195.69;;;20.93;100.00
11345;BME280;5727;42.600;23.028;2023-07-09T07:06:30;94189.97;;;20.95;100.00
11345;BME280;5727;42.600;23.028;2023-07-09T07:08:57;94188.47;;;21.05;100.00
11345;BME280;5727;42.600;23.028;2023-07-09T07:11:24;94183.16;;;21.08;98.50
11345;BME280;5727;42.600;23.028;2023-07-09T07:13:55;94195.69;;;21.04;93.98
11345;BME280;5727;42.600;23.028;2023-07-09T07:16:23;94192.25;;;20.96;93.58
11345;BME280;5727;42.600;23.028;2023-07-09T07:18:51;94189.19;;;20.98;95.62
11345;BME280;5727;42.600;23.028;2023-07-09T07:21:18;94178.97;;;21.07;94.97
11345;BME280;5727;42.600;23.028;2023-07-09T07:23:45;94183.16;;;21.22;94.45
11345;BME280;5727;42.600;23.028;2023-07-09T07:26:11;94186.56;;;21.19;94.84
11345;BME280;5727;42.600;23.028;2023-07-09T07:28:38;94186.22;;;21.31;93.54
11345;BME280;5727;42.600;23.028;2023-07-09T07:31:06;94184.31;;;21.35;93.84
11345;BME280;5727;42.600;23.028;2023-07-09T07:33:34;94177.44;;;21.48;94.41
11345;BME280;5727;42.600;23.028;2023-07-09T07:36:04;94172.09;;;21.48;94.24
11345;BME280;5727;42.600;23.028;2023-07-09T07:38:30;94172.88;;;21.52;95.00
11345;BME280;5727;42.600;23.028;2023-07-09T07:40:57;94176.28;;;21.56;94.10
11345;BME280;5727;42.600;23.028;2023-07-09T07:43:24;94166.41;;;21.53;94.96
11345;BME280;5727;42.600;23.028;2023-07-09T07:45:50;94172.13;;;21.59;95.36
11345;BME280;5727;42.600;23.028;2023-07-09T07:48:17;94161.41;;;21.73;97.63
11345;BME280;5727;42.600;23.028;2023-07-09T07:50:45;94157.59;;;21.81;95.38
11345;BME280;5727;42.600;23.028;2023-07-09T07:53:15;94160.63;;;21.79;94.44
11345;BME280;5727;42.600;23.028;2023-07-09T07:55:42;94161.41;;;21.87;95.70
11345;BME280;5727;42.600;23.028;2023-07-09T07:58:10;94163.66;;;21.92;95.74
11345;BME280;5727;42.600;23.028;2023-07-09T08:00:38;94157.53;;;22.06;95.50
11345;BME280;5727;42.600;23.028;2023-07-09T08:03:04;94158.28;;;22.17;89.69
11345;BME280;5727;42.600;23.028;2023-07-09T08:05:31;94165.84;;;22.25;86.51
11345;BME280;5727;42.600;23.028;2023-07-09T08:07:58;94165.47;;;22.30;86.18
11345;BME280;5727;42.600;23.028;2023-07-09T08:10:26;94159.06;;;22.10;85.38
11345;BME280;5727;42.600;23.028;2023-07-09T08:12:53;94159.81;;;22.04;81.10
11345;BME280;5727;42.600;23.028;2023-07-09T08:15:22;94155.28;;;22.01;83.90
11345;BME280;5727;42.600;23.028;2023-07-09T08:17:48;94141.91;;;22.04;82.81
11345;BME280;5727;42.600;23.028;2023-07-09T08:20:15;94138.47;;;22.04;81.23
11345;BME280;5727;42.600;23.028;2023-07-09T08:22:42;94141.53;;;22.06;82.25
11345;BME280;5727;42.600;23.028;2023-07-09T08:25:09;94152.13;;;22.23;83.06
11345;BME280;5727;42.600;23.028;2023-07-09T08:27:37;94135.75;;;22.21;77.05
11345;BME280;5727;42.600;23.028;2023-07-09T08:30:05;94137.59;;;22.35;76.27
11345;BME280;5727;42.600;23.028;2023-07-09T08:32:32;94141.34;;;22.51;71.58
11345;BME280;5727;42.600;23.028;2023-07-09T08:34:59;94145.50;;;22.63;69.68
11345;BME280;5727;42.600;23.028;2023-07-09T08:37:26;94142.41;;;22.68;72.35
11345;BME280;5727;42.600;23.028;2023-07-09T08:39:52;94135.50;;;22.74;69.63
11345;BME280;5727;42.600;23.028;2023-07-09T08:42:26;94135.81;;;22.87;68.48
11345;BME280;5727;42.600;23.028;2023-07-09T08:45:13;94133.44;;;22.96;68.10
11345;BME280;5727;42.600;23.028;2023-07-09T08:47:49;94128.09;;;22.99;72.50
11345;BME280;5727;42.600;23.028;2023-07-09T08:50:19;94135.56;;;23.18;72.86
11345;BME280;5727;42.600;23.028;2023-07-09T08:52:48;94140.81;;;23.29;70.37
11345;BME280;5727;42.600;23.028;2023-07-09T08:55:17;94133.09;;;23.45;73.26
11345;BME280;5727;42.600;23.028;2023-07-09T08:57:45;94145.25;;;23.49;66.79
11345;BME280;5727;42.600;23.028;2023-07-09T09:00:18;94137.78;;;23.27;66.30
11345;BME280;5727;42.600;23.028;2023-07-09T09:02:51;94133.91;;;23.38;67.30
11345;BME280;5727;42.600;23.028;2023-07-09T09:05:20;94135.06;;;23.37;66.14
11345;BME280;5727;42.600;23.028;2023-07-09T09:07:51;94134.63;;;23.42;65.04
11345;BME280;5727;42.600;23.028;2023-07-09T09:10:24;94140.09;;;23.32;64.18
11345;BME280;5727;42.600;23.028;2023-07-09T09:13:02;94139.97;;;23.42;66.63
11345;BME280;5727;42.600;23.028;2023-07-09T09:15:33;94141.53;;;23.40;63.94
11345;BME280;5727;42.600;23.028;2023-07-09T09:18:17;94138.16;;;23.32;65.10
11345;BME280;5727;42.600;23.028;2023-07-09T09:20:48;94141.19;;;23.34;65.61
11345;BME280;5727;42.600;23.028;2023-07-09T09:23:18;94127.00;;;23.41;65.35
11345;BME280;5727;42.600;23.028;2023-07-09T09:25:48;94139.56;;;23.44;62.91
11345;BME280;5727;42.600;23.028;2023-07-09T09:28:16;94133.41;;;23.50;63.26
11345;BME280;5727;42.600;23.028;2023-07-09T09:30:45;94138.00;;;23.50;62.61
11345;BME280;5727;42.600;23.028;2023-07-09T09:33:11;94138.81;;;23.47;64.21
11345;BME280;5727;42.600;23.028;2023-07-09T09:35:40;94133.50;;;23.40;65.59
11345;BME280;5727;42.600;23.028;2023-07-09T09:38:10;94143.34;;;23.50;66.33
11345;BME280;5727;42.600;23.028;2023-07-09T09:40:37;94143.25;;;23.60;67.07
11345;BME280;5727;42.600;23.028;2023-07-09T09:43:12;94138.63;;;23.65;63.51
11345;BME280;5727;42.600;23.028;2023-07-09T09:45:40;94127.53;;;23.66;65.00
11345;BME280;5727;42.600;23.028;2023-07-09T09:48:15;94122.47;;;23.75;65.04
11345;BME280;5727;42.600;23.028;2023-07-09T09:50:43;94118.94;;;23.85;61.91
11345;BME280;5727;42.600;23.028;2023-07-09T09:53:18;94131.25;;;23.76;63.05
11345;BME280;5727;42.600;23.028;2023-07-09T09:55:45;94123.69;;;23.67;64.56
11345;BME280;5727;42.600;23.028;2023-07-09T09:58:14;94123.31;;;23.65;63.97
11345;BME280;5727;42.600;23.028;2023-07-09T10:00:48;94117.88;;;23.76;64.69
11345;BME280;5727;42.600;23.028;2023-07-09T10:03:16;94120.06;;;23.88;64.75
11345;BME280;5727;42.600;23.028;2023-07-09T10:05:45;94118.00;;;24.02;63.15
11345;BME280;5727;42.600;23.028;2023-07-09T10:08:17;94108.94;;;24.23;67.22
11345;BME280;5727;42.600;23.028;2023-07-09T10:10:47;94107.16;;;24.43;64.72
11345;BME280;5727;42.600;23.028;2023-07-09T10:13:22;94105.19;;;24.47;63.30
11345;BME280;5727;42.600;23.028;2023-07-09T10:16:01;94109.84;;;24.43;63.18
11345;BME280;5727;42.600;23.028;2023-07-09T10:18:41;94112.53;;;24.43;64.95
11345;BME280;5727;42.600;23.028;2023-07-09T10:21:15;94110.97;;;24.45;63.13
11345;BME280;5727;42.600;23.028;2023-07-09T10:23:51;94106.34;;;24.46;64.22
11345;BME280;5727;42.600;23.028;2023-07-09T10:26:29;94100.78;;;24.33;61.44
11345;BME280;5727;42.600;23.028;2023-07-09T10:29:17;94101.88;;;24.36;61.56
11345;BME280;5727;42.600;23.028;2023-07-09T10:31:52;94100.88;;;24.26;62.40
11345;BME280;5727;42.600;23.028;2023-07-09T10:34:29;94103.16;;;24.28;64.39
11345;BME280;5727;42.600;23.028;2023-07-09T10:37:08;94105.66;;;24.12;65.83
11345;BME280;5727;42.600;23.028;2023-07-09T10:39:43;94102.34;;;24.31;67.06
11345;BME280;5727;42.600;23.028;2023-07-09T10:42:23;94094.97;;;24.38;64.11
11345;BME280;5727;42.600;23.028;2023-07-09T10:44:55;94092.16;;;24.49;68.91
11345;BME280;5727;42.600;23.028;2023-07-09T10:47:35;94096.34;;;24.50;62.53
11345;BME280;5727;42.600;23.028;2023-07-09T10:50:09;94099.50;;;24.45;62.65
11345;BME280;5727;42.600;23.028;2023-07-09T10:52:41;94105.63;;;24.42;61.20
11345;BME280;5727;42.600;23.028;2023-07-09T10:55:17;94107.97;;;24.40;61.63
11345;BME280;5727;42.600;23.028;2023-07-09T10:57:57;94110.09;;;24.52;61.89
11345;BME280;5727;42.600;23.028;2023-07-09T11:00:32;94102.84;;;24.52;60.71
11345;BME280;5727;42.600;23.028;2023-07-09T11:03:04;94100.75;;;24.64;60.44
11345;BME280;5727;42.600;23.028;2023-07-09T11:05:33;94097.63;;;24.72;61.23
11345;BME280;5727;42.600;23.028;2023-07-09T11:08:02;94086.84;;;24.76;66.11
11345;BME280;5727;42.600;23.028;2023-07-09T11:10:34;94091.94;;;24.93;62.69
11345;BME280;5727;42.600;23.028;2023-07-09T11:13:05;94101.84;;;24.96;60.54
11345;BME280;5727;42.600;23.028;2023-07-09T11:15:42;94101.34;;;25.01;61.62
11345;BME280;5727;42.600;23.028;2023-07-09T11:18:13;94092.94;;;25.03;59.25
11345;BME280;5727;42.600;23.028;2023-07-09T11:20:44;94102.34;;;25.11;62.79
11345;BME280;5727;42.600;23.028;2023-07-09T11:23:19;94100.16;;;25.29;62.27
11345;BME280;5727;42.600;23.028;2023-07-09T11:25:48;94090.25;;;25.26;58.67
11345;BME280;5727;42.600;23.028;2023-07-09T11:28:15;94097.88;;;25.27;59.88
11345;BME280;5727;42.600;23.028;2023-07-09T11:30:47;94093.22;;;25.31;56.87
11345;BME280;5727;42.600;23.028;2023-07-09T11:33:18;94083.09;;;25.43;57.63
11345;BME280;5727;42.600;23.028;2023-07-09T11:35:48;94091.38;;;26.14;51.40
11345;BME280;5727;42.600;23.028;2023-07-09T11:38:17;94087.09;;;26.88;46.58
11345;BME280;5727;42.600;23.028;2023-07-09T11:40:50;94085.56;;;28.37;43.29
11345;BME280;5727;42.600;23.028;2023-07-09T11:43:29;94088.16;;;29.41;41.40
11345;BME280;5727;42.600;23.028;2023-07-09T11:46:13;94081.19;;;31.13;37.85
11345;BME280;5727;42.600;23.028;2023-07-09T11:48:41;94079.56;;;32.70;34.28
11345;BME280;5727;42.600;23.028;2023-07-09T11:51:14;94081.47;;;32.78;33.10
11345;BME280;5727;42.600;23.028;2023-07-09T11:53:44;94081.78;;;33.69;30.72
11345;BME280;5727;42.600;23.028;2023-07-09T11:56:13;94067.13;;;33.67;30.72
11345;BME280;5727;42.600;23.028;2023-07-09T11:58:48;94065.75;;;34.24;28.88
11345;BME280;5727;42.600;23.028;2023-07-09T12:01:18;94075.88;;;33.47;30.38
11345;BME280;5727;42.600;23.028;2023-07-09T12:03:46;94066.97;;;34.38;28.99
11345;BME280;5727;42.600;23.028;2023-07-09T12:06:19;94069.72;;;33.47;29.99
11345;BME280;5727;42.600;23.028;2023-07-09T12:08:48;94072.34;;;33.56;28.45
11345;BME280;5727;42.600;23.028;2023-07-09T12:11:21;94072.41;;;34.81;26.69
11345;BME280;5727;42.600;23.028;2023-07-09T12:13:51;94070.66;;;34.78;25.72
11345;BME280;5727;42.600;23.028;2023-07-09T12:16:21;94067.19;;;35.27;25.56
11345;BME280;5727;42.600;23.028;2023-07-09T12:18:49;94075.16;;;35.31;25.64
11345;BME280;5727;42.600;23.028;2023-07-09T12:21:17;94070.00;;;34.40;24.71
11345;BME280;5727;42.600;23.028;2023-07-09T12:23:44;94054.78;;;34.19;26.48
11345;BME280;5727;42.600;23.028;2023-07-09T12:26:13;94052.97;;;35.78;25.15
11345;BME280;5727;42.600;23.028;2023-07-09T12:28:40;94043.16;;;35.86;24.21
11345;BME280;5727;42.600;23.028;2023-07-09T12:31:13;94057.66;;;35.03;25.69
11345;BME280;5727;42.600;23.028;2023-07-09T12:33:47;94066.00;;;32.61;27.73
11345;BME280;5727;42.600;23.028;2023-07-09T12:36:14;94048.47;;;31.84;29.36
11345;BME280;5727;42.600;23.028;2023-07-09T12:38:45;94049.38;;;31.53;29.74
11345;BME280;5727;42.600;23.028;2023-07-09T12:41:19;94053.44;;;31.85;29.39
11345;BME280;5727;42.600;23.028;2023-07-09T12:43:46;94048.47;;;33.60;27.33
11345;BME280;5727;42.600;23.028;2023-07-09T12:46:14;94045.16;;;34.47;26.18
11345;BME280;5727;42.600;23.028;2023-07-09T12:48:41;94052.44;;;34.26;26.23
11345;BME280;5727;42.600;23.028;2023-07-09T12:51:09;94044.88;;;33.92;27.23
11345;BME280;5727;42.600;23.028;2023-07-09T12:53:36;94042.41;;;33.65;26.58
11345;BME280;5727;42.600;23.028;2023-07-09T12:56:15;94033.31;;;34.35;26.45
11345;BME280;5727;42.600;23.028;2023-07-09T12:58:42;94045.66;;;33.92;25.26
11345;BME280;5727;42.600;23.028;2023-07-09T13:01:15;94038.88;;;33.26;26.41
11345;BME280;5727;42.600;23.028;2023-07-09T13:03:53;94052.34;;;32.46;28.19
11345;BME280;5727;42.600;23.028;2023-07-09T13:06:28;94041.25;;;31.90;27.08
11345;BME280;5727;42.600;23.028;2023-07-09T13:08:57;94050.13;;;33.10;24.33